createdAt,value
2023-05-25T00:03:12.782Z,13.89
2023-05-25T00:07:16.193Z,13.82
2023-05-25T00:11:19.671Z,13.81
2023-05-25T00:15:21.891Z,13.59
2023-05-25T00:19:25.085Z,13.50
2023-05-25T00:23:27.243Z,13.49
2023-05-25T00:27:30.328Z,13.47
2023-05-25T00:31:33.571Z,13.50
2023-05-25T00:35:35.919Z,13.43
2023-05-25T00:39:38.081Z,13.43
2023-05-25T00:43:40.476Z,13.52
2023-05-25T00:47:44.345Z,13.46
2023-05-25T00:51:48.402Z,13.43
2023-05-25T00:55:57.982Z,13.36
2023-05-25T01:00:02.286Z,13.39
2023-05-25T01:04:07.469Z,13.44
2023-05-25T01:08:12.109Z,13.45
2023-05-25T01:12:19.186Z,13.42
2023-05-25T01:16:21.818Z,13.46
2023-05-25T01:20:24.199Z,13.47
2023-05-25T01:24:26.653Z,13.59
2023-05-25T01:28:32.762Z,13.82
2023-05-25T01:32:37.351Z,13.95
2023-05-25T01:36:39.698Z,13.94
2023-05-25T01:40:41.860Z,13.90
2023-05-25T01:44:44.984Z,13.92
2023-05-25T01:48:55.942Z,13.90
2023-05-25T01:53:12.868Z,13.94
2023-05-25T01:57:17.905Z,14.16
2023-05-25T02:01:22.718Z,14.06
2023-05-25T02:05:24.990Z,14.06
2023-05-25T02:09:27.413Z,13.96
2023-05-25T02:13:29.607Z,14.05
2023-05-25T02:17:32.113Z,14.07
2023-05-25T02:21:37.679Z,14.20
2023-05-25T02:25:39.823Z,14.29
2023-05-25T02:29:41.946Z,14.19
2023-05-25T02:33:44.168Z,14.23
2023-05-25T02:37:47.292Z,14.17
2023-05-25T02:41:50.969Z,14.21
2023-05-25T02:45:54.803Z,14.15
2023-05-25T02:49:56.904Z,14.05
2023-05-25T02:53:59.857Z,14.05
2023-05-25T02:58:02.244Z,14.05
2023-05-25T03:02:21.149Z,13.94
2023-05-25T03:06:23.495Z,13.94
2023-05-25T03:10:30.144Z,14.04
2023-05-25T03:14:32.647Z,14.00
2023-05-25T03:18:39.554Z,14.14
2023-05-25T03:22:43.355Z,14.02
2023-05-25T03:26:45.535Z,13.96
2023-05-25T03:30:48.019Z,14.00
2023-05-25T03:34:51.514Z,14.07
2023-05-25T03:38:54.821Z,14.10
2023-05-25T03:42:57.436Z,14.14
2023-05-25T03:46:59.713Z,14.25
2023-05-25T03:51:02.085Z,14.20
2023-05-25T03:55:05.292Z,14.35
2023-05-25T03:59:07.579Z,14.32
2023-05-25T04:03:11.047Z,14.41
2023-05-25T04:07:13.665Z,14.46
2023-05-25T04:11:15.952Z,14.20
2023-05-25T04:15:18.145Z,14.02
2023-05-25T04:19:29.398Z,14.02
2023-05-25T04:23:34.121Z,14.13
2023-05-25T04:27:36.741Z,14.09
2023-05-25T04:31:41.150Z,14.20
2023-05-25T04:35:50.550Z,14.50
2023-05-25T04:39:54.121Z,14.41
2023-05-25T04:44:05.758Z,14.51
2023-05-25T04:48:13.937Z,14.59
2023-05-25T04:52:16.249Z,14.46
2023-05-25T04:56:22.298Z,14.66
2023-05-25T05:00:24.981Z,14.66
2023-05-25T05:04:29.244Z,14.68
2023-05-25T05:08:31.991Z,14.71
2023-05-25T05:12:34.298Z,14.62
2023-05-25T05:16:37.576Z,14.41
2023-05-25T05:20:40.022Z,14.53
2023-05-25T05:24:42.443Z,14.41
2023-05-25T05:28:47.028Z,14.46
2023-05-25T05:32:49.278Z,14.57
2023-05-25T05:36:58.067Z,14.55
2023-05-25T05:41:03.113Z,14.70
2023-05-25T05:45:06.004Z,14.68
2023-05-25T05:49:08.095Z,14.75
2023-05-25T05:53:11.059Z,14.86
2023-05-25T05:57:13.339Z,14.82
2023-05-25T06:01:18.392Z,15.09
2023-05-25T06:05:21.319Z,14.98
2023-05-25T06:09:23.816Z,15.35
2023-05-25T06:13:26.211Z,15.04
2023-05-25T06:17:29.783Z,15.00
2023-05-25T06:21:31.960Z,15.05
2023-05-25T06:25:34.036Z,14.98
2023-05-25T06:29:36.083Z,15.06
2023-05-25T06:33:38.193Z,15.19
2023-05-25T06:37:41.284Z,15.20
2023-05-25T06:41:43.636Z,14.98
2023-05-25T06:45:46.219Z,15.14
2023-05-25T06:49:49.966Z,15.07
2023-05-25T06:53:52.395Z,15.22
2023-05-25T06:57:54.132Z,15.22
2023-05-25T07:01:56.416Z,15.51
2023-05-25T07:05:58.644Z,15.47
2023-05-25T07:10:03.630Z,15.22
2023-05-25T07:14:05.975Z,15.26
2023-05-25T07:18:12.361Z,15.23
2023-05-25T07:22:17.005Z,15.45
2023-05-25T07:26:22.926Z,15.52
2023-05-25T07:30:25.049Z,15.48
2023-05-25T07:34:28.002Z,15.67
2023-05-25T07:38:30.254Z,15.85
2023-05-25T07:42:34.440Z,15.77
2023-05-25T07:46:36.635Z,16.12
2023-05-25T07:50:38.740Z,15.73
2023-05-25T07:54:41.141Z,16.02
2023-05-25T07:58:43.238Z,16.22
2023-05-25T08:02:45.938Z,16.29
2023-05-25T08:06:48.136Z,16.03
2023-05-25T08:10:50.467Z,16.35
2023-05-25T08:14:54.084Z,16.32
2023-05-25T08:18:56.233Z,16.61
2023-05-25T08:22:59.714Z,16.56
2023-05-25T08:27:02.722Z,16.94
2023-05-25T08:31:04.926Z,16.99
2023-05-25T08:35:08.052Z,17.27
2023-05-25T08:39:10.286Z,17.55
2023-05-25T08:43:12.374Z,17.49
2023-05-25T08:47:16.313Z,17.41
2023-05-25T08:51:18.950Z,17.47
2023-05-25T08:55:23.977Z,17.50
2023-05-25T08:59:31.660Z,17.78
2023-05-25T09:03:35.070Z,17.99
2023-05-25T09:07:37.563Z,18.16
2023-05-25T09:11:44.948Z,18.59
2023-05-25T09:15:48.889Z,19.21
2023-05-25T09:19:51.364Z,19.39
2023-05-25T09:23:53.610Z,19.13
2023-05-25T09:27:59.395Z,19.13
2023-05-25T09:32:07.087Z,19.47
2023-05-25T09:36:09.562Z,19.71
2023-05-25T09:40:11.964Z,19.35
2023-05-25T09:44:14.011Z,19.19
2023-05-25T09:48:16.239Z,19.14
2023-05-25T09:52:18.497Z,19.21
2023-05-25T09:56:21.842Z,19.27
2023-05-25T10:00:24.927Z,19.17
2023-05-25T10:04:27.187Z,19.41
2023-05-25T10:08:29.896Z,19.29
2023-05-25T10:12:32.665Z,19.05
2023-05-25T10:16:35.188Z,19.14
2023-05-25T10:20:38.339Z,19.30
2023-05-25T10:24:52.114Z,19.44
2023-05-25T10:29:01.391Z,19.30
2023-05-25T10:33:03.736Z,18.94
2023-05-25T10:37:07.535Z,19.52
2023-05-25T10:41:11.277Z,19.73
2023-05-25T10:45:13.973Z,19.60
2023-05-25T10:49:26.530Z,19.37
2023-05-25T10:53:28.711Z,19.00
2023-05-25T10:57:31.205Z,18.63
2023-05-25T11:01:33.703Z,18.74
2023-05-25T11:05:38.363Z,18.83
2023-05-25T11:09:44.934Z,18.69
2023-05-25T11:13:47.733Z,18.77
2023-05-25T11:18:14.627Z,18.95
2023-05-25T11:22:35.221Z,18.79
2023-05-25T11:26:37.537Z,18.93
2023-05-25T11:30:42.087Z,19.09
2023-05-25T11:34:46.837Z,19.16
2023-05-25T11:39:02.399Z,19.31
2023-05-25T11:43:09.659Z,19.55
2023-05-25T11:47:18.929Z,19.81
2023-05-25T11:51:23.871Z,20.15
2023-05-25T11:55:26.115Z,20.22
2023-05-25T11:59:32.207Z,20.63
2023-05-25T12:03:34.869Z,21.08
2023-05-25T12:07:43.896Z,21.27
2023-05-25T12:11:46.068Z,21.67
2023-05-25T12:15:48.715Z,22.15
2023-05-25T12:19:51.215Z,22.34
2023-05-25T12:23:54.684Z,22.77
2023-05-25T12:28:13.021Z,23.39
2023-05-25T12:32:15.494Z,23.15
2023-05-25T12:36:18.052Z,23.28
2023-05-25T12:40:21.117Z,23.56
2023-05-25T12:44:27.253Z,23.92
2023-05-25T12:48:29.492Z,24.10
2023-05-25T12:52:39.461Z,24.10
2023-05-25T12:56:55.616Z,24.32
2023-05-25T13:00:57.660Z,24.38
2023-05-25T13:04:59.778Z,24.37
2023-05-25T13:09:02.584Z,24.49
2023-05-25T13:13:04.907Z,24.44
2023-05-25T13:17:07.144Z,24.71
2023-05-25T13:21:10.079Z,24.79
2023-05-25T13:25:13.070Z,24.75
2023-05-25T13:29:15.364Z,24.64
2023-05-25T13:33:17.460Z,24.60
2023-05-25T13:37:19.908Z,24.76
2023-05-25T13:41:22.157Z,24.84
2023-05-25T13:45:24.324Z,24.44
2023-05-25T13:49:26.524Z,24.27
2023-05-25T13:53:28.814Z,24.65
2023-05-25T13:57:30.864Z,24.37
2023-05-25T14:01:33.272Z,24.54
2023-05-25T14:05:35.389Z,24.36
2023-05-25T14:09:37.468Z,23.78
2023-05-25T14:13:39.552Z,23.36
2023-05-25T14:17:41.683Z,23.16
2023-05-25T14:21:43.887Z,23.04
2023-05-25T14:25:47.341Z,23.52
2023-05-25T14:29:52.269Z,23.56
2023-05-25T14:33:54.371Z,23.38
2023-05-25T14:37:56.514Z,23.18
2023-05-25T14:41:58.676Z,23.35
2023-05-25T14:46:00.782Z,23.78
2023-05-25T14:50:03.047Z,24.08
2023-05-25T14:54:07.230Z,24.46
2023-05-25T14:58:10.126Z,24.01
2023-05-25T15:02:12.471Z,23.81
2023-05-25T15:06:14.633Z,23.54
2023-05-25T15:10:16.797Z,22.99
2023-05-25T15:14:18.876Z,23.15
2023-05-25T15:18:21.128Z,23.26
2023-05-25T15:22:23.187Z,23.28
2023-05-25T15:26:26.392Z,23.87
2023-05-25T15:30:28.447Z,23.82
2023-05-25T15:34:30.742Z,24.33
2023-05-25T15:38:32.902Z,24.83
2023-05-25T15:42:37.212Z,24.73
2023-05-25T15:46:41.003Z,24.39
2023-05-25T15:50:43.232Z,23.77
2023-05-25T15:54:45.347Z,23.38
2023-05-25T15:58:49.314Z,23.14
2023-05-25T16:02:51.492Z,22.79
2023-05-25T16:06:53.634Z,22.59
2023-05-25T16:10:55.866Z,22.65
2023-05-25T16:14:58.152Z,22.84
2023-05-25T16:19:00.307Z,23.07
2023-05-25T16:23:02.780Z,23.14
2023-05-25T16:27:05.038Z,23.00
2023-05-25T16:31:07.628Z,22.96
2023-05-25T16:35:10.413Z,22.76
2023-05-25T16:39:12.467Z,22.72
2023-05-25T16:43:14.619Z,22.59
2023-05-25T16:47:17.091Z,22.62
2023-05-25T16:51:19.154Z,22.53
2023-05-25T16:55:21.517Z,22.41
2023-05-25T16:59:23.944Z,22.29
2023-05-25T17:03:26.392Z,22.07
2023-05-25T17:07:30.116Z,22.14
2023-05-25T17:11:32.504Z,22.02
2023-05-25T17:15:34.846Z,21.96
2023-05-25T17:19:37.523Z,21.95
2023-05-25T17:23:39.835Z,21.81
2023-05-25T17:27:42.164Z,21.67
2023-05-25T17:31:47.740Z,21.63
2023-05-25T17:35:50.891Z,21.59
2023-05-25T17:39:53.000Z,21.51
2023-05-25T17:43:55.248Z,21.32
2023-05-25T17:47:58.377Z,21.25
2023-05-25T17:52:00.511Z,21.18
2023-05-25T17:56:02.998Z,21.15
2023-05-25T18:00:05.950Z,21.04
2023-05-25T18:04:14.925Z,20.93
2023-05-25T18:08:17.299Z,20.86
2023-05-25T18:12:19.615Z,20.70
2023-05-25T18:16:22.673Z,20.72
2023-05-25T18:20:24.728Z,20.60
2023-05-25T18:24:27.997Z,20.48
2023-05-25T18:28:31.403Z,20.39
2023-05-25T18:32:34.027Z,20.31
2023-05-25T18:36:36.555Z,20.30
2023-05-25T18:40:38.328Z,20.25
2023-05-25T18:44:41.754Z,20.12
2023-05-25T18:48:44.197Z,20.08
2023-05-25T18:52:50.574Z,20.03
2023-05-25T18:56:53.580Z,19.99
2023-05-25T19:00:55.885Z,19.87
2023-05-25T19:04:57.966Z,19.77
2023-05-25T19:09:00.304Z,19.73
2023-05-25T19:13:02.726Z,19.58
2023-05-25T19:17:05.752Z,19.57
2023-05-25T19:21:08.814Z,19.52
2023-05-25T19:25:11.249Z,19.48
2023-05-25T19:29:14.203Z,19.41
2023-05-25T19:33:16.361Z,19.24
2023-05-25T19:37:18.749Z,19.10
2023-05-25T19:41:21.391Z,18.99
2023-05-25T19:45:23.814Z,18.86
2023-05-25T19:49:26.312Z,18.73
2023-05-25T19:53:31.279Z,18.61
2023-05-25T19:57:33.349Z,18.45
2023-05-25T20:01:36.415Z,18.38
2023-05-25T20:05:38.658Z,18.23
2023-05-25T20:09:42.857Z,18.08
2023-05-25T20:13:46.678Z,17.95
2023-05-25T20:17:49.064Z,17.75
2023-05-25T20:21:51.796Z,17.61
2023-05-25T20:25:54.241Z,17.47
2023-05-25T20:29:57.500Z,17.26
2023-05-25T20:33:59.757Z,17.08
2023-05-25T20:38:02.065Z,16.96
2023-05-25T20:42:04.564Z,16.94
2023-05-25T20:46:08.633Z,16.94
2023-05-25T20:50:10.949Z,16.96
2023-05-25T20:54:13.040Z,16.98
2023-05-25T20:58:15.102Z,17.00
2023-05-25T21:02:17.920Z,17.09
2023-05-25T21:06:20.890Z,17.10
2023-05-25T21:10:23.124Z,17.09
2023-05-25T21:14:25.261Z,17.13
2023-05-25T21:18:27.347Z,17.19
2023-05-25T21:22:29.379Z,17.12
2023-05-25T21:26:31.524Z,17.16
2023-05-25T21:30:33.756Z,17.05
2023-05-25T21:34:35.938Z,16.87
2023-05-25T21:38:37.919Z,16.74
2023-05-25T21:42:41.057Z,16.62
2023-05-25T21:46:43.337Z,16.48
2023-05-25T21:50:45.377Z,16.29
2023-05-25T21:54:47.502Z,16.25
2023-05-25T21:58:49.696Z,16.11
2023-05-25T22:02:51.829Z,16.28
2023-05-25T22:06:56.629Z,16.27
2023-05-25T22:10:58.752Z,16.28
2023-05-25T22:15:00.746Z,16.30
2023-05-25T22:19:02.908Z,16.26
2023-05-25T22:23:05.135Z,16.12
2023-05-25T22:27:07.589Z,16.14
2023-05-25T22:31:09.737Z,16.08
2023-05-25T22:35:11.804Z,15.86
2023-05-25T22:39:13.931Z,15.78
2023-05-25T22:43:16.662Z,15.85
2023-05-25T22:47:18.749Z,15.85
2023-05-25T22:51:20.802Z,16.09
2023-05-25T22:55:23.012Z,16.15
2023-05-25T22:59:25.042Z,16.28
2023-05-25T23:03:27.108Z,16.11
2023-05-25T23:07:28.933Z,16.06
2023-05-25T23:11:30.942Z,16.09
2023-05-25T23:15:33.264Z,16.11
2023-05-25T23:19:35.831Z,16.13
2023-05-25T23:23:37.972Z,16.19
2023-05-25T23:27:40.082Z,16.21
2023-05-25T23:31:42.209Z,16.27
2023-05-25T23:35:44.709Z,16.18
2023-05-25T23:39:46.847Z,16.24
2023-05-25T23:43:48.944Z,16.26
2023-05-25T23:47:51.384Z,16.25
2023-05-25T23:51:53.443Z,16.40
2023-05-25T23:55:55.542Z,16.48
2023-05-25T23:59:57.974Z,16.45
